Terminal Aerodrome Forecast
Issued by NWS

Home | Current Version | Previous Version | Text Only | Print | Product List | Glossary Off
Versions: 1 2 3 4 5 6 7 8 9 10 11 12 13 14 15 16 17 18 19 20 21 22 23 24 25 26 27 28 29 30 31 32 33 34 35

000
FTUS43 KLOT 250535
TAFMDW
TAF
KMDW 250535Z 2506/2606 06012G18KT P6SM VCSH SCT040 OVC050
     FM251100 08012G18KT P6SM VCSH OVC045
     FM251300 08014G20KT 5SM -RA BR OVC030
     FM251600 08016G22KT 3SM RA BR OVC009
     FM252200 05015G23KT 6SM -RA OVC015
     FM260100 03012KT P6SM BKN035=

USA.gov is the U.S. government's official web portal to all federal, state and local government web resources and services.